This is the latest recevied weather packets stored in our database for station/object DG7AA-13. If no packets are shown the sender has not sent any weather packets the latest 10 day(s).
| Time | Temp. | Humidity | Pressure | Rain* | Wind** | Luminosity | Snow |
|---|---|---|---|---|---|---|---|
| 1777819527 | 23.33° C | 39% | - | 0 mm | - | - | - |
| 1777818934 | 23.33° C | 38% | - | 0 mm | - | - | - |
| 1777818323 | 22.78° C | 39% | - | 0 mm | - | - | - |
| 1777817732 | 22.22° C | 39% | - | 0 mm | - | - | - |
| 1777817128 | 22.78° C | 37% | - | 0 mm | - | - | - |
| 1777816531 | 23.89° C | 35% | - | 0 mm | - | - | - |
| 1777815927 | 22.78° C | 38% | - | 0 mm | - | - | - |
| 1777815331 | 22.22° C | 40% | - | 0 mm | - | - | - |
| 1777814724 | 21.11° C | 44% | - | 0 mm | - | - | - |
| 1777814123 | 21.67° C | 44% | - | 0 mm | - | - | - |
| 1777813526 | 21.67° C | 44% | - | 0 mm | - | - | - |
| 1777812934 | 21.11° C | 48% | - | 0 mm | - | - | - |
| 1777812323 | 20.56° C | 49% | - | 0 mm | - | - | - |
| 1777811722 | 19.44° C | 51% | - | 0 mm | - | - | - |
| 1777811127 | 19.44° C | 48% | - | 0 mm | - | - | - |
| 1777810534 | 20° C | 51% | - | 0 mm | - | - | - |
| 1777809926 | 20° C | 53% | - | 0 mm | - | - | - |
| 1777809331 | 20° C | 52% | - | 0 mm | - | - | - |
| 1777808726 | 20° C | 50% | - | 0 mm | - | - | - |
| 1777808134 | 21.11° C | 46% | - | 0 mm | - | - | - |
| 1777807524 | 21.67° C | 44% | - | 0 mm | - | - | - |
| 1777806931 | 21.67° C | 44% | - | 0 mm | - | - | - |
| 1777806328 | 22.22° C | 44% | - | 0 mm | - | - | - |
| 1777805732 | 22.78° C | 40% | - | 0 mm | - | - | - |
| 1777805123 | 22.22° C | 40% | - | 0 mm | - | - | - |
* Rain latest hour (hover to see other rain measurements)
** Current wind speed in m/s (hover to see current wind gust speed)